Time;durP1;ratioP1;P1;durP2;ratioP2;P2;SDS_P1;SDS_P2;PMS_P1;PMS_P2;Temp;Humidity;BMP_temperature;BMP_pressure;BME280_temperature;BME280_humidity;BME280_pressure;Samples;Min_cycle;Max_cycle;Signal;HPM_P1;HPM_P2
2022/04/10 00:00:07;;;;;;;19.53;3.27;;;4.60;99.90;;;;;;5176626;27;20091;-82
2022/04/10 00:02:33;;;;;;;14.10;2.90;;;4.70;99.90;;;;;;5176326;27;20046;-82
2022/04/10 00:04:59;;;;;;;19.23;3.83;;;4.70;99.90;;;;;;5158001;27;20488;-82
2022/04/10 00:07:24;;;;;;;17.30;3.03;;;4.70;99.90;;;;;;5176301;27;20039;-82
2022/04/10 00:09:50;;;;;;;11.67;2.47;;;4.70;99.90;;;;;;5176578;27;20121;-82
2022/04/10 00:12:16;;;;;;;18.10;3.10;;;4.60;99.90;;;;;;5176383;27;20042;-82
2022/04/10 00:14:42;;;;;;;19.40;3.10;;;4.60;99.90;;;;;;5175935;27;20105;-82
2022/04/10 00:17:08;;;;;;;13.20;3.20;;;4.50;99.90;;;;;;5175920;27;20057;-82
2022/04/10 00:19:33;;;;;;;17.93;3.77;;;4.50;99.90;;;;;;5139652;27;20050;-82
2022/04/10 00:21:59;;;;;;;15.57;3.27;;;4.50;99.90;;;;;;5176324;27;20170;-82
2022/04/10 00:24:25;;;;;;;15.83;3.27;;;4.50;99.90;;;;;;5176282;27;20049;-83
2022/04/10 00:26:54;;;;;;;14.50;2.97;;;4.50;99.90;;;;;;5154116;27;20511;-82
2022/04/10 00:29:20;;;;;;;14.75;3.00;;;4.40;99.90;;;;;;5155454;27;20409;-82
2022/04/10 00:31:45;;;;;;;18.83;3.57;;;4.40;99.90;;;;;;5155330;27;20180;-82
2022/04/10 00:34:11;;;;;;;16.77;2.50;;;4.40;99.90;;;;;;5155290;27;20046;-82
2022/04/10 00:36:37;;;;;;;14.43;2.63;;;4.40;99.90;;;;;;5119700;27;20378;-82
2022/04/10 00:39:03;;;;;;;17.57;2.90;;;4.30;99.90;;;;;;5155136;27;20174;-82
2022/04/10 00:41:30;;;;;;;20.27;3.13;;;4.30;99.90;;;;;;5155041;27;20574;-83
2022/04/10 00:44:10;;;;;;;12.10;2.50;;;4.30;99.90;;;;;;5154979;27;20043;-82
2022/04/10 00:46:37;;;;;;;13.52;3.08;;;4.30;99.90;;;;;;5154911;27;20042;-83
2022/04/10 00:49:04;;;;;;;12.07;2.80;;;4.20;99.90;;;;;;5155111;27;20513;-82
2022/04/10 00:51:46;;;;;;;14.88;3.08;;;4.20;99.90;;;;;;5159065;27;20046;-83
2022/04/10 00:54:18;;;;;;;14.63;2.95;;;4.20;99.90;;;;;;5154296;27;20053;-82
2022/04/10 00:56:44;;;;;;;15.63;3.42;;;4.10;99.90;;;;;;5154779;27;20090;-82
2022/04/10 00:59:11;;;;;;;19.50;3.28;;;4.20;99.90;;;;;;5153896;27;20158;-83
2022/04/10 01:01:38;;;;;;;15.88;2.90;;;;;;;;;;5153678;27;20034;-83
2022/04/10 01:04:06;;;;;;;14.18;3.20;;;4.10;99.90;;;;;;5153678;27;20154;-82
2022/04/10 01:06:35;;;;;;;15.70;3.35;;;4.10;99.90;;;;;;5154585;27;20078;-83
2022/04/10 01:09:03;;;;;;;15.40;2.88;;;4.10;99.90;;;;;;5155125;27;20072;-82
2022/04/10 01:11:29;;;;;;;17.05;2.72;;;4.10;99.90;;;;;;5154674;27;20053;-83
2022/04/10 01:13:56;;;;;;;12.75;2.78;;;4.10;99.90;;;;;;5154664;27;20529;-82
2022/04/10 01:16:25;;;;;;;19.25;3.85;;;4.10;99.90;;;;;;5136660;27;20099;-82
2022/04/10 01:18:51;;;;;;;12.05;3.00;;;4.00;99.90;;;;;;5154582;27;20046;-82
2022/04/10 01:21:27;;;;;;;15.38;2.88;;;4.10;99.90;;;;;;5153929;27;20510;-82
2022/04/10 01:23:55;;;;;;;13.93;2.65;;;4.00;99.90;;;;;;5154738;27;20115;-82
2022/04/10 01:26:22;;;;;;;15.60;2.65;;;4.00;99.90;;;;;;5154614;27;20534;-82
2022/04/10 01:29:02;;;;;;;16.83;3.08;;;4.00;99.90;;;;;;5175052;27;20066;-83
2022/04/10 01:31:30;;;;;;;17.67;2.88;;;4.10;99.90;;;;;;5177711;27;20046;-83
2022/04/10 01:34:00;;;;;;;16.52;2.75;;;4.20;99.90;;;;;;5179593;27;20050;-82
2022/04/10 01:36:28;;;;;;;13.15;2.92;;;4.10;99.90;;;;;;5160727;27;20046;-83
2022/04/10 01:38:56;;;;;;;14.88;3.08;;;4.10;99.90;;;;;;5179395;27;20042;-82
2022/04/10 01:41:22;;;;;;;11.05;2.60;;;3.90;99.90;;;;;;5160889;27;20393;-83
2022/04/10 01:43:49;;;;;;;15.30;3.33;;;3.90;99.90;;;;;;5179140;27;20385;-83
2022/04/10 01:46:16;;;;;;;17.48;3.13;;;4.00;99.90;;;;;;5160912;27;20155;-82
2022/04/10 01:48:42;;;;;;;13.07;2.67;;;4.00;99.90;;;;;;5179059;27;20121;-82
2022/04/10 01:51:09;;;;;;;14.85;2.97;;;3.90;99.90;;;;;;5160893;27;20060;-82
2022/04/10 01:53:35;;;;;;;17.98;2.88;;;3.90;99.90;;;;;;5179014;27;20050;-83
2022/04/10 01:56:02;;;;;;;12.98;2.67;;;4.00;99.90;;;;;;5160842;27;20123;-82
2022/04/10 01:58:33;;;;;;;12.70;2.42;;;3.90;99.90;;;;;;5143132;27;20079;-82
2022/04/10 02:01:02;;;;;;;8.73;2.72;;;4.00;99.90;;;;;;5179261;27;20095;-82
2022/04/10 02:03:27;;;;;;;11.63;2.90;;;4.10;99.90;;;;;;5178519;27;20067;-83
2022/04/10 02:05:53;;;;;;;13.70;2.67;;;3.90;99.90;;;;;;5178688;27;20046;-82
2022/04/10 02:08:19;;;;;;;15.77;2.33;;;3.90;99.90;;;;;;5178989;27;20383;-81
2022/04/10 02:10:44;;;;;;;11.40;2.57;;;3.90;99.90;;;;;;5178233;27;20054;-82
2022/04/10 02:13:11;;;;;;;16.63;2.63;;;3.90;99.90;;;;;;5178732;27;20042;-82
2022/04/10 02:15:37;;;;;;;13.35;2.85;;;4.00;99.90;;;;;;5160083;27;20050;-83
2022/04/10 02:18:04;;;;;;;13.32;2.33;;;4.00;99.90;;;;;;5160199;27;20393;-82
2022/04/10 02:20:29;;;;;;;14.25;2.50;;;4.10;99.90;;;;;;5160400;27;20069;-82
2022/04/10 02:22:55;;;;;;;16.40;2.50;;;4.10;99.90;;;;;;5159894;27;20533;-82
2022/04/10 02:25:21;;;;;;;20.33;3.23;;;4.20;99.90;;;;;;5159604;27;20425;-82
2022/04/10 02:27:47;;;;;;;12.90;3.10;;;4.20;99.90;;;;;;5178244;27;20137;-82
2022/04/10 02:30:13;;;;;;;14.40;2.20;;;4.30;99.90;;;;;;5160453;27;20050;-82
2022/04/10 02:32:40;;;;;;;16.27;2.55;;;4.30;99.90;;;;;;5178306;27;20082;-82
2022/04/10 02:35:08;;;;;;;19.02;2.92;;;4.30;99.90;;;;;;5178335;27;20034;-82
2022/04/10 02:37:34;;;;;;;14.10;3.08;;;4.30;99.90;;;;;;5178294;27;20050;-82
2022/04/10 02:40:01;;;;;;;12.40;2.67;;;4.20;99.90;;;;;;5159980;27;20050;-82
2022/04/10 02:42:27;;;;;;;14.38;2.53;;;4.30;99.90;;;;;;5176910;27;20114;-82
2022/04/10 02:44:54;;;;;;;14.60;2.40;;;4.30;99.90;;;;;;5177821;27;20098;-81
2022/04/10 02:47:20;;;;;;;13.30;2.65;;;4.30;99.90;;;;;;5178064;27;20470;-82
2022/04/10 02:49:46;;;;;;;10.40;2.45;;;4.30;99.90;;;;;;5159488;27;20470;-82
2022/04/10 02:52:12;;;;;;;14.70;2.78;;;4.30;99.90;;;;;;5159543;27;20397;-82
2022/04/10 02:54:38;;;;;;;11.70;2.23;;;4.20;99.90;;;;;;5177708;27;20136;-83
2022/04/10 02:57:04;;;;;;;10.27;2.63;;;4.30;99.90;;;;;;5177854;27;20046;-77
2022/04/10 02:59:30;;;;;;;14.07;2.03;;;4.20;99.90;;;;;;5180176;27;20443;-79
2022/04/10 03:01:55;;;;;;;11.07;1.70;;;4.20;99.90;;;;;;5141993;27;20079;-80
2022/04/10 03:04:21;;;;;;;7.30;2.20;;;4.30;99.90;;;;;;5159241;27;20492;-81
2022/04/10 03:06:47;;;;;;;3.30;1.20;;;4.20;99.90;;;;;;5177438;27;20065;-81
2022/04/10 03:09:12;;;;;;;3.60;1.00;;;4.20;99.90;;;;;;5159005;27;20124;-78
2022/04/10 03:11:38;;;;;;;3.33;0.80;;;4.20;99.90;;;;;;5177589;27;20077;-85
2022/04/10 03:14:04;;;;;;;3.33;0.87;;;4.20;99.90;;;;;;5159274;27;20046;-80
2022/04/10 03:16:29;;;;;;;3.60;0.70;;;4.20;99.90;;;;;;5177532;27;20046;-80
2022/04/10 03:18:55;;;;;;;4.10;0.77;;;4.10;99.90;;;;;;5158638;27;20042;-80
2022/04/10 03:21:21;;;;;;;4.10;0.90;;;4.10;99.90;;;;;;5177537;27;20125;-80
2022/04/10 03:23:47;;;;;;;4.20;1.00;;;4.10;99.90;;;;;;5158408;27;20050;-80
2022/04/10 03:26:13;;;;;;;4.80;1.03;;;4.10;99.90;;;;;;5141396;27;20049;-80
2022/04/10 03:28:39;;;;;;;2.47;0.70;;;4.00;99.90;;;;;;5158577;27;20046;-80
2022/04/10 03:31:04;;;;;;;5.87;1.10;;;4.00;99.90;;;;;;5158421;27;20053;-80
2022/04/10 03:33:30;;;;;;;8.03;1.10;;;4.00;99.90;;;;;;5177445;27;20078;-80
2022/04/10 03:35:56;;;;;;;4.83;1.30;;;4.00;99.90;;;;;;5176935;27;20070;-80
2022/04/10 03:38:22;;;;;;;5.47;1.27;;;4.00;99.90;;;;;;5176985;27;20088;-80
2022/04/10 03:40:48;;;;;;;6.93;1.77;;;4.00;99.90;;;;;;5176868;27;20038;-80
2022/04/10 03:43:14;;;;;;;5.47;1.50;;;3.90;99.90;;;;;;5177026;27;20467;-80
2022/04/10 03:45:40;;;;;;;5.45;1.33;;;3.90;99.90;;;;;;5176932;27;20053;-80
2022/04/10 03:48:06;;;;;;;8.07;1.63;;;3.90;99.90;;;;;;5176564;27;20095;-80
2022/04/10 03:50:33;;;;;;;6.65;1.23;;;4.00;99.90;;;;;;5158515;27;20827;-80
2022/04/10 03:53:00;;;;;;;11.32;1.90;;;3.90;99.90;;;;;;5176472;27;20501;-80
2022/04/10 03:55:27;;;;;;;11.80;1.88;;;3.90;99.90;;;;;;5176422;27;20042;-80
2022/04/10 03:57:53;;;;;;;13.45;2.10;;;3.90;99.90;;;;;;5176909;27;20121;-81
2022/04/10 04:00:19;;;;;;;10.83;2.00;;;3.80;99.90;;;;;;5158387;27;20129;-80
2022/04/10 04:02:44;;;;;;;11.00;1.63;;;3.80;99.90;;;;;;5176415;27;20053;-81
2022/04/10 04:05:10;;;;;;;8.10;1.40;;;3.80;99.90;;;;;;5176809;27;20042;-80
2022/04/10 04:07:37;;;;;;;6.65;1.58;;;3.80;99.90;;;;;;5158129;27;20075;-80
2022/04/10 04:10:04;;;;;;;6.18;1.50;;;3.80;99.90;;;;;;5176289;27;20094;-80
2022/04/10 04:12:30;;;;;;;12.95;2.33;;;3.80;99.90;;;;;;5176436;27;20061;-81
2022/04/10 04:14:56;;;;;;;8.33;1.50;;;3.80;99.90;;;;;;5176157;27;20034;-81
2022/04/10 04:17:21;;;;;;;7.40;2.10;;;3.70;99.90;;;;;;5140621;27;20294;-80
2022/04/10 04:19:50;;;;;;;11.33;1.80;;;3.70;99.90;;;;;;5157562;27;20042;-81
2022/04/10 04:22:16;;;;;;;8.55;1.45;;;3.70;99.90;;;;;;5176496;27;20095;-80
2022/04/10 04:24:43;;;;;;;9.63;2.13;;;3.70;99.90;;;;;;5176135;27;20042;-81
2022/04/10 04:27:08;;;;;;;9.10;1.77;;;3.70;99.90;;;;;;5157195;27;20046;-81
2022/04/10 04:29:34;;;;;;;8.23;1.97;;;3.70;99.90;;;;;;5176331;27;20472;-81
2022/04/10 04:32:00;;;;;;;7.13;1.70;;;3.70;99.90;;;;;;5175969;27;20118;-81
2022/04/10 04:34:26;;;;;;;11.10;1.63;;;3.70;99.90;;;;;;5176063;27;20470;-81
2022/04/10 04:36:52;;;;;;;12.70;1.80;;;3.70;99.90;;;;;;5175877;27;20161;-81
2022/04/10 04:39:18;;;;;;;9.20;1.97;;;3.70;99.90;;;;;;5140112;27;20477;-80
2022/04/10 04:41:43;;;;;;;11.05;1.92;;;3.70;99.90;;;;;;5175992;27;20050;-80
2022/04/10 04:44:09;;;;;;;9.67;1.67;;;3.70;99.90;;;;;;5175630;27;20110;-80
2022/04/10 04:46:35;;;;;;;9.13;1.57;;;3.80;99.90;;;;;;5175533;27;20133;-81
2022/04/10 04:49:01;;;;;;;8.57;1.52;;;3.70;99.90;;;;;;5175432;27;20489;-81
2022/04/10 04:51:27;;;;;;;9.43;1.97;;;3.70;99.90;;;;;;5175563;27;20194;-80
2022/04/10 04:53:53;;;;;;;8.02;2.53;;;3.70;99.90;;;;;;5175570;27;20418;-81
2022/04/10 04:56:19;;;;;;;7.47;1.80;;;3.70;99.90;;;;;;5175742;27;20042;-81
2022/04/10 04:58:47;;;;;;;5.97;1.45;;;3.70;99.90;;;;;;5175690;27;20081;-81
2022/04/10 05:01:13;;;;;;;11.00;2.05;;;3.70;99.90;;;;;;5157062;27;20057;-80
2022/04/10 05:03:39;;;;;;;10.07;2.30;;;3.80;99.90;;;;;;5157298;27;20042;-78
2022/04/10 05:06:05;;;;;;;7.00;1.90;;;3.80;99.90;;;;;;5176803;27;20125;-79
2022/04/10 05:08:31;;;;;;;7.93;2.30;;;3.70;99.90;;;;;;5182904;27;20038;-79
2022/04/10 05:10:58;;;;;;;10.13;2.20;;;3.80;99.90;;;;;;5179846;27;20052;-81
2022/04/10 05:13:23;;;;;;;8.38;1.70;;;3.80;99.90;;;;;;5179990;27;20085;-80
2022/04/10 05:15:49;;;;;;;11.30;2.10;;;3.80;99.90;;;;;;5144233;27;20088;-80
2022/04/10 05:18:17;;;;;;;13.50;2.90;;;3.80;99.90;;;;;;5179616;27;20094;-80
2022/04/10 05:20:43;;;;;;;8.75;1.80;;;3.80;99.90;;;;;;5180075;27;20053;-80
2022/04/10 05:23:09;;;;;;;9.27;2.08;;;3.90;99.90;;;;;;5179747;27;20069;-80
2022/04/10 05:25:37;;;;;;;13.57;2.30;;;3.90;99.90;;;;;;5161336;27;20478;-80
2022/04/10 05:28:03;;;;;;;11.88;2.40;;;3.90;99.90;;;;;;5179445;27;20283;-80
2022/04/10 05:30:29;;;;;;;12.63;2.80;;;4.00;99.90;;;;;;5179755;27;20140;-80
2022/04/10 05:32:55;;;;;;;9.20;1.90;;;4.00;99.90;;;;;;5160688;27;20133;-81
2022/04/10 05:35:21;;;;;;;12.10;2.13;;;4.10;99.90;;;;;;5161478;27;20551;-80
2022/04/10 05:37:46;;;;;;;9.43;1.67;;;4.10;99.90;;;;;;5179639;27;20049;-80
2022/04/10 05:40:12;;;;;;;7.63;1.53;;;4.20;99.90;;;;;;5143604;27;20097;-81
2022/04/10 05:42:45;;;;;;;7.93;2.13;;;4.20;99.90;;;;;;5179428;27;20045;-81
2022/04/10 05:45:11;;;;;;;13.43;2.78;;;4.20;99.90;;;;;;5179138;27;20167;-81
2022/04/10 05:47:39;;;;;;;10.77;2.03;;;4.30;99.90;;;;;;5179692;27;20082;-81
2022/04/10 05:50:05;;;;;;;8.90;2.45;;;4.20;99.90;;;;;;5179076;27;20279;-81
2022/04/10 05:52:31;;;;;;;11.93;2.00;;;4.30;99.90;;;;;;5179191;27;20034;-80
2022/04/10 05:54:58;;;;;;;11.10;2.33;;;4.30;99.90;;;;;;5179368;27;20049;-81
2022/04/10 05:57:24;;;;;;;7.40;1.67;;;4.20;99.90;;;;;;5143275;27;20042;-81
2022/04/10 05:59:50;;;;;;;15.80;1.97;;;4.30;99.90;;;;;;5160623;27;20046;-81
2022/04/10 06:02:16;;;;;;;8.57;1.63;;;4.30;99.90;;;;;;5178805;27;20042;-81
2022/04/10 06:04:41;;;;;;;9.80;1.80;;;4.40;99.90;;;;;;5178830;27;20067;-81
2022/04/10 06:07:07;;;;;;;8.40;1.60;;;4.40;99.90;;;;;;5178689;27;20099;-81
2022/04/10 06:09:33;;;;;;;8.90;1.70;;;;;;;;;;5179157;27;20046;-81
2022/04/10 06:11:59;;;;;;;9.38;2.28;;;4.70;99.90;;;;;;5178624;27;20279;-82
2022/04/10 06:14:25;;;;;;;9.67;1.87;;;4.80;99.90;;;;;;5178470;27;20550;-81
2022/04/10 06:16:50;;;;;;;8.30;1.80;;;4.90;99.90;;;;;;5178459;27;20038;-82
2022/04/10 06:19:18;;;;;;;7.63;1.90;;;5.50;99.90;;;;;;5178457;27;20093;-82
2022/04/10 06:21:44;;;;;;;8.73;1.95;;;7.50;99.90;;;;;;5178392;27;20490;-82
2022/04/10 06:24:10;;;;;;;7.30;1.23;;;8.70;99.90;;;;;;5159738;27;20070;-83
2022/04/10 06:26:35;;;;;;;6.40;1.30;;;10.00;99.90;;;;;;5178542;27;20277;-82
2022/04/10 06:29:02;;;;;;;6.87;1.10;;;11.10;99.90;;;;;;5178363;27;20039;-83
2022/04/10 06:31:28;;;;;;;8.82;2.10;;;;;;;;;;5178494;27;20056;-83
2022/04/10 06:33:56;;;;;;;7.53;1.80;;;11.80;99.90;;;;;;5159791;27;20431;-82
2022/04/10 06:36:22;;;;;;;6.80;1.43;;;;;;;;;;5178083;27;20282;-83
2022/04/10 06:38:49;;;;;;;8.00;1.40;;;11.00;86.90;;;;;;5159662;27;20332;-82
2022/04/10 06:41:15;;;;;;;5.53;1.70;;;;;;;;;;5159537;27;20276;-82
2022/04/10 06:43:41;;;;;;;7.30;1.70;;;;;;;;;;5159732;27;20318;-82
2022/04/10 06:46:08;;;;;;;8.60;1.37;;;9.60;99.90;;;;;;5177982;27;20279;-81
2022/04/10 06:48:35;;;;;;;6.40;1.93;;;;;;;;;;5178439;27;20318;-82
2022/04/10 06:51:03;;;;;;;6.33;1.50;;;8.80;99.90;;;;;;5177991;27;20687;-82
2022/04/10 06:53:28;;;;;;;9.57;1.70;;;8.30;99.90;;;;;;5177898;27;20268;-81
2022/04/10 06:55:54;;;;;;;11.43;2.10;;;8.10;99.90;;;;;;5177974;27;20351;-81
2022/04/10 06:58:22;;;;;;;9.83;1.80;;;8.00;99.90;;;;;;5159364;27;20042;-82
2022/04/10 07:00:49;;;;;;;11.67;2.33;;;8.10;99.90;;;;;;5178106;27;20050;-82
2022/04/10 07:03:15;;;;;;;7.33;2.17;;;;;;;;;;5177650;27;20305;-83
2022/04/10 07:05:41;;;;;;;12.07;2.00;;;9.40;99.90;;;;;;5159442;27;20307;-83
2022/04/10 07:08:07;;;;;;;13.10;2.20;;;11.20;99.90;;;;;;5177621;27;20276;-83
2022/04/10 07:10:33;;;;;;;12.17;1.97;;;12.80;99.90;;;;;;5177964;27;20283;-83
2022/04/10 07:12:59;;;;;;;9.93;2.47;;;14.30;96.20;;;;;;5159498;27;20283;-83
2022/04/10 07:15:25;;;;;;;9.43;2.13;;;15.40;91.20;;;;;;5177351;27;20046;-83
2022/04/10 07:17:52;;;;;;;12.67;2.50;;;16.50;81.60;;;;;;5144991;27;20054;-82
2022/04/10 07:20:18;;;;;;;8.57;2.30;;;16.50;72.10;;;;;;5176887;27;20561;-83
2022/04/10 07:25:28;;;;;;;8.27;2.53;;;16.80;77.80;;;;;;5177219;27;20295;-82
2022/04/10 07:27:53;;;;;;;8.50;2.33;;;17.50;67.00;;;;;;5177287;27;20294;-83
2022/04/10 07:30:19;;;;;;;9.93;2.80;;;18.10;60.10;;;;;;5176287;27;20443;-83
2022/04/10 07:32:52;;;;;;;10.10;2.30;;;18.80;59.80;;;;;;5177227;27;20050;-83
2022/04/10 07:35:19;;;;;;;11.33;3.17;;;19.20;55.20;;;;;;5176980;27;20124;-84
2022/04/10 07:37:48;;;;;;;8.13;2.23;;;18.50;55.10;;;;;;5177114;27;20057;-83
2022/04/10 07:40:14;;;;;;;10.77;2.53;;;;;;;;;;5158501;27;20069;-84
2022/04/10 07:42:41;;;;;;;5.90;1.73;;;17.30;50.70;;;;;;5177362;27;20050;-82
2022/04/10 07:45:08;;;;;;;9.77;2.33;;;16.90;55.20;;;;;;5177068;27;20121;-82
2022/04/10 07:47:34;;;;;;;8.83;2.27;;;16.20;55.90;;;;;;5176964;27;20046;-83
2022/04/10 07:49:59;;;;;;;8.80;2.53;;;14.30;55.50;;;;;;5176967;27;20114;-82
2022/04/10 07:52:25;;;;;;;13.73;2.97;;;14.20;57.70;;;;;;5176589;27;20133;-82
2022/04/10 07:54:54;;;;;;;9.20;2.50;;;;;;;;;;5177025;27;20082;-82
2022/04/10 07:57:21;;;;;;;11.00;2.40;;;;;;;;;;5176615;27;20050;-83
2022/04/10 07:59:47;;;;;;;11.10;2.67;;;;;;;;;;5176696;27;20328;-82
2022/04/10 08:02:12;;;;;;;11.27;2.53;;;12.60;96.00;;;;;;5157772;27;20287;-83
2022/04/10 08:04:38;;;;;;;10.73;2.20;;;12.40;63.10;;;;;;5176660;27;20299;-83
2022/04/10 08:07:04;;;;;;;7.43;2.20;;;12.40;64.10;;;;;;5176511;27;20046;-83
2022/04/10 08:09:31;;;;;;;11.40;2.70;;;12.00;64.20;;;;;;5176309;27;20358;-82
2022/04/10 08:11:58;;;;;;;13.20;2.73;;;;;;;;;;5176537;27;20050;-82
2022/04/10 08:14:24;;;;;;;8.40;2.00;;;;;;;;;;5157432;27;20838;-82
2022/04/10 08:16:49;;;;;;;9.73;2.07;;;11.00;95.50;;;;;;5176251;27;20420;-82
2022/04/10 08:19:15;;;;;;;11.17;2.60;;;10.60;67.20;;;;;;5157624;27;20371;-82
2022/04/10 08:21:41;;;;;;;9.37;2.43;;;10.50;67.00;;;;;;5176540;27;20046;-82
2022/04/10 08:24:09;;;;;;;9.80;1.90;;;10.60;67.80;;;;;;5157589;27;20038;-82
2022/04/10 08:26:35;;;;;;;7.37;1.80;;;10.70;68.40;;;;;;5157470;27;20042;-83
2022/04/10 08:29:01;;;;;;;11.00;2.27;;;10.80;68.00;;;;;;5157553;27;20283;-82
2022/04/10 08:31:28;;;;;;;12.00;1.93;;;10.90;68.10;;;;;;5175649;27;20042;-82
2022/04/10 08:33:54;;;;;;;8.17;1.67;;;10.70;68.30;;;;;;5156972;27;20499;-82
2022/04/10 08:36:20;;;;;;;15.00;2.50;;;10.70;69.70;;;;;;5175867;27;20339;-82
2022/04/10 08:38:47;;;;;;;10.27;2.27;;;10.70;70.00;;;;;;5176073;27;20363;-81
2022/04/10 08:41:13;;;;;;;10.60;2.20;;;10.60;69.30;;;;;;5176010;27;20482;-83
2022/04/10 08:43:39;;;;;;;11.30;2.10;;;10.60;69.00;;;;;;5176020;27;20275;-83
2022/04/10 08:46:07;;;;;;;10.93;2.17;;;10.60;68.70;;;;;;5157117;27;20315;-82
2022/04/10 08:48:35;;;;;;;6.93;1.50;;;10.60;68.80;;;;;;5175788;27;20275;-83
2022/04/10 08:51:02;;;;;;;10.20;2.00;;;10.60;69.10;;;;;;5140143;27;20770;-82
2022/04/10 08:53:32;;;;;;;8.97;1.47;;;10.80;69.10;;;;;;5175751;27;20343;-82
2022/04/10 08:55:57;;;;;;;7.67;1.87;;;10.80;68.20;;;;;;5157551;27;20333;-82
2022/04/10 08:58:23;;;;;;;11.73;2.33;;;10.70;67.90;;;;;;5157071;27;20798;-82
2022/04/10 09:00:49;;;;;;;9.00;2.10;;;10.50;69.20;;;;;;5157245;27;20085;-82
2022/04/10 09:03:15;;;;;;;13.47;2.47;;;10.40;69.90;;;;;;5176030;27;20042;-82
2022/04/10 09:05:41;;;;;;;7.27;1.90;;;10.30;70.50;;;;;;5175763;27;20038;-82
2022/04/10 09:08:11;;;;;;;12.50;2.03;;;10.30;71.60;;;;;;5175723;27;20042;-82
2022/04/10 09:10:55;;;;;;;12.77;2.50;;;10.40;72.50;;;;;;5175461;27;20046;-82
2022/04/10 09:13:32;;;;;;;11.47;2.43;;;10.60;73.00;;;;;;5175491;27;20283;-82
2022/04/10 09:16:09;;;;;;;9.73;1.80;;;10.60;72.90;;;;;;5157461;27;20294;-82
2022/04/10 09:18:49;;;;;;;9.07;2.07;;;10.40;71.90;;;;;;5175310;27;20367;-82
2022/04/10 09:21:16;;;;;;;8.73;2.00;;;10.40;71.70;;;;;;5175722;27;20283;-82
2022/04/10 09:23:46;;;;;;;9.27;2.47;;;10.40;71.80;;;;;;5175766;27;20271;-82
2022/04/10 09:26:13;;;;;;;10.83;2.03;;;10.50;71.80;;;;;;5177296;27;20287;-81
2022/04/10 09:29:02;;;;;;;6.47;1.70;;;10.60;72.40;;;;;;5154387;27;20692;-82
2022/04/10 09:31:33;;;;;;;11.37;2.27;;;10.60;71.90;;;;;;5154474;27;20752;-82
2022/04/10 09:34:03;;;;;;;11.43;2.47;;;10.50;72.40;;;;;;5154732;27;20284;-82
2022/04/10 09:36:30;;;;;;;9.10;1.93;;;10.40;71.80;;;;;;5154365;27;20276;-82
2022/04/10 09:38:56;;;;;;;9.90;2.13;;;10.40;72.80;;;;;;5154832;27;20363;-82
2022/04/10 09:41:21;;;;;;;8.90;1.87;;;10.30;72.60;;;;;;5153358;27;20834;-82
2022/04/10 09:43:47;;;;;;;14.47;2.87;;;10.30;72.40;;;;;;5153537;27;20047;-82
2022/04/10 09:46:13;;;;;;;8.60;1.80;;;10.30;72.50;;;;;;5153410;27;20472;-82
2022/04/10 09:48:39;;;;;;;9.67;1.70;;;10.20;71.70;;;;;;5135795;27;20074;-82
2022/04/10 09:51:05;;;;;;;8.53;1.93;;;10.30;70.90;;;;;;5153411;27;20051;-82
2022/04/10 09:53:32;;;;;;;10.77;3.23;;;10.50;71.60;;;;;;5156684;27;20669;-82
2022/04/10 09:56:03;;;;;;;8.73;1.73;;;10.40;71.20;;;;;;5157065;27;20049;-82
2022/04/10 09:58:30;;;;;;;10.27;1.80;;;10.30;69.10;;;;;;5156529;27;20452;-82
2022/04/10 10:00:57;;;;;;;9.77;2.00;;;10.20;70.00;;;;;;5157719;27;20315;-82
2022/04/10 10:03:25;;;;;;;12.83;2.47;;;10.10;70.90;;;;;;5157526;27;20287;-82
2022/04/10 10:05:53;;;;;;;7.77;2.00;;;10.10;71.40;;;;;;5139044;27;20288;-82
2022/04/10 10:08:19;;;;;;;10.50;2.30;;;10.20;72.60;;;;;;5157572;27;20280;-82
2022/04/10 10:10:46;;;;;;;9.97;2.07;;;10.40;72.60;;;;;;5157398;27;20744;-82
2022/04/10 10:13:14;;;;;;;8.30;1.80;;;10.60;71.90;;;;;;5157593;27;20319;-82
2022/04/10 10:15:44;;;;;;;5.33;1.53;;;10.70;71.60;;;;;;5157140;27;20280;-82
2022/04/10 10:18:12;;;;;;;9.63;2.37;;;10.80;71.10;;;;;;5157405;27;20665;-82
2022/04/10 10:20:45;;;;;;;9.17;1.90;;;10.80;71.20;;;;;;5156546;27;20360;-81
2022/04/10 10:23:13;;;;;;;10.27;2.30;;;10.60;69.90;;;;;;5157826;27;20616;-82
2022/04/10 10:26:00;;;;;;;6.63;1.70;;;10.50;70.20;;;;;;5156021;27;20299;-82
2022/04/10 10:28:58;;;;;;;8.47;2.00;;;10.40;70.70;;;;;;5174470;27;20287;-82
2022/04/10 10:32:02;;;;;;;10.50;1.90;;;10.40;70.90;;;;;;5087341;27;20692;-82
2022/04/10 10:34:28;;;;;;;7.53;1.67;;;10.40;71.20;;;;;;5155220;27;20291;-82
2022/04/10 10:36:55;;;;;;;10.63;1.90;;;10.50;72.10;;;;;;5178180;27;20596;-81
2022/04/10 10:39:22;;;;;;;6.97;1.80;;;10.50;71.80;;;;;;5178317;27;20275;-81
2022/04/10 10:41:51;;;;;;;12.27;1.83;;;10.40;71.40;;;;;;5159565;27;20630;-81
2022/04/10 10:44:42;;;;;;;8.40;1.63;;;10.30;71.90;;;;;;5177959;27;20292;-81
2022/04/10 10:47:16;;;;;;;7.00;1.90;;;10.20;70.20;;;;;;5178127;27;20293;-81
2022/04/10 10:49:44;;;;;;;5.95;1.23;;;10.10;71.60;;;;;;5177656;27;20754;-81
2022/04/10 10:52:11;;;;;;;5.30;2.07;;;10.10;71.50;;;;;;5159806;27;20456;-80
2022/04/10 10:54:44;;;;;;;9.07;2.07;;;10.10;72.00;;;;;;5159622;27;20283;-81
2022/04/10 10:57:40;;;;;;;8.07;1.37;;;10.10;71.70;;;;;;5159404;27;20355;-81
2022/04/10 11:00:08;;;;;;;9.13;1.73;;;10.10;70.60;;;;;;5177807;27;20276;-81
2022/04/10 11:02:35;;;;;;;6.77;1.43;;;10.00;70.40;;;;;;5159130;27;20129;-82
2022/04/10 11:05:06;;;;;;;7.40;1.90;;;10.00;70.30;;;;;;5141194;27;20339;-81
2022/04/10 11:07:36;;;;;;;10.23;1.73;;;10.00;70.70;;;;;;5177815;27;20294;-81
2022/04/10 11:10:11;;;;;;;5.53;1.40;;;10.10;71.20;;;;;;5177797;27;20366;-81
2022/04/10 11:12:50;;;;;;;;;;;10.20;71.50;;;;;;5159794;27;20366;-82
2022/04/10 11:15:21;;;;;;;12.30;2.03;;;10.30;70.50;;;;;;5158756;27;19919;-81
2022/04/10 11:17:47;;;;;;;11.30;1.87;;;10.30;69.80;;;;;;5159099;27;20291;-81
2022/04/10 11:20:16;;;;;;;6.57;1.80;;;10.40;69.70;;;;;;5177566;27;20634;-81
2022/04/10 11:22:50;;;;;;;9.60;2.10;;;10.40;69.90;;;;;;5177270;27;20362;-81
2022/04/10 11:25:28;;;;;;;7.67;1.90;;;10.50;69.10;;;;;;5159059;27;20306;-81
2022/04/10 11:27:59;;;;;;;6.60;1.43;;;10.50;68.60;;;;;;5141842;27;20299;-81
2022/04/10 11:30:33;;;;;;;7.00;1.70;;;10.50;69.30;;;;;;5177355;27;20287;-81
2022/04/10 11:32:59;;;;;;;11.30;1.70;;;10.40;69.50;;;;;;5177688;27;20398;-81
2022/04/10 11:35:27;;;;;;;4.63;1.30;;;10.30;69.90;;;;;;5162146;27;20299;-80
2022/04/10 11:37:58;;;;;;;6.37;1.43;;;10.20;70.30;;;;;;5158521;27;20042;-81
2022/04/10 11:40:28;;;;;;;9.20;1.83;;;10.20;70.30;;;;;;5177302;27;20286;-81
2022/04/10 11:42:55;;;;;;;9.63;2.50;;;10.10;70.20;;;;;;5158379;27;20319;-81
2022/04/10 11:45:31;;;;;;;6.70;1.43;;;10.10;70.60;;;;;;5176955;27;20291;-80
2022/04/10 11:47:57;;;;;;;9.23;2.83;;;10.00;70.20;;;;;;5177101;27;20282;-81
2022/04/10 11:50:28;;;;;;;9.77;2.17;;;9.90;70.30;;;;;;5158297;27;20276;-81
2022/04/10 11:53:06;;;;;;;6.87;1.57;;;9.90;70.90;;;;;;5158378;27;20298;-81
2022/04/10 11:55:43;;;;;;;10.53;1.97;;;9.90;70.60;;;;;;5158543;27;20306;-81
2022/04/10 11:58:11;;;;;;;7.37;1.33;;;10.00;70.70;;;;;;5176741;27;20287;-81
2022/04/10 12:00:37;;;;;;;7.07;1.77;;;10.10;70.70;;;;;;5158191;27;20295;-81
2022/04/10 12:03:03;;;;;;;6.10;1.63;;;10.20;70.40;;;;;;5176647;27;20286;-81
2022/04/10 12:05:30;;;;;;;10.57;2.00;;;10.30;70.60;;;;;;5158001;27;20038;-81
2022/04/10 12:08:01;;;;;;;5.80;1.23;;;10.40;70.40;;;;;;5176400;27;20627;-81
2022/04/10 12:10:27;;;;;;;4.90;1.57;;;10.40;69.30;;;;;;5176546;27;20284;-81
2022/04/10 12:12:54;;;;;;;8.17;1.27;;;10.40;69.30;;;;;;5176351;27;20276;-81
2022/04/10 12:15:20;;;;;;;5.57;1.10;;;10.40;69.90;;;;;;5176164;27;20267;-81
2022/04/10 12:17:47;;;;;;;7.73;1.60;;;10.40;69.30;;;;;;5157868;27;20291;-81
2022/04/10 12:20:14;;;;;;;7.97;1.60;;;10.40;69.10;;;;;;5176441;27;20367;-81
2022/04/10 12:22:41;;;;;;;11.17;1.50;;;10.40;69.30;;;;;;5176123;27;20279;-80
2022/04/10 12:25:08;;;;;;;5.90;1.50;;;10.50;69.00;;;;;;5176179;27;20335;-81
2022/04/10 12:27:34;;;;;;;9.03;1.33;;;10.50;69.40;;;;;;5157665;27;20288;-81
2022/04/10 12:30:08;;;;;;;9.43;2.03;;;10.60;69.50;;;;;;5176011;27;20284;-80
2022/04/10 12:32:34;;;;;;;8.43;1.57;;;10.60;68.40;;;;;;5176233;27;20279;-81
2022/04/10 12:35:07;;;;;;;7.53;1.60;;;10.60;69.00;;;;;;5157573;27;20271;-81
2022/04/10 12:37:33;;;;;;;7.20;1.20;;;10.50;67.60;;;;;;5176286;27;20281;-80
2022/04/10 12:40:00;;;;;;;6.90;1.53;;;10.30;67.90;;;;;;5175927;27;20306;-81
2022/04/10 12:42:40;;;;;;;7.13;1.83;;;10.30;67.70;;;;;;5176240;27;20061;-80
2022/04/10 12:45:08;;;;;;;4.80;1.13;;;10.20;68.40;;;;;;5176425;27;20295;-80
2022/04/10 12:47:47;;;;;;;3.87;1.20;;;10.10;68.30;;;;;;5176148;27;20326;-80
2022/04/10 12:50:19;;;;;;;10.83;1.50;;;10.00;68.60;;;;;;5157934;27;20355;-80
2022/04/10 12:52:45;;;;;;;11.10;1.60;;;10.00;69.30;;;;;;5175681;27;20608;-81
2022/04/10 12:55:22;;;;;;;5.17;1.07;;;10.00;70.00;;;;;;5175855;27;20278;-81
2022/04/10 12:57:59;;;;;;;8.70;1.30;;;10.00;69.70;;;;;;5175756;27;20311;-80